首页
METAR-TAF:

METAR-TAF

机场 :

科利佐沃國際機場

葉卡捷琳堡, 俄罗斯

纬度: 56-50N, 经度: 060-38E, 海拔: 237米

当前天气观测

该预报发布于37分钟前的14:00 UTC
风速8节,风向南转西南
温度 6°C
湿度 81%
气压 1011 hPa
能见度10公里或以上
多云层高于1600英尺

METAR: USSS 231400Z 20004MPS 9999 BKN016 06/03 Q1011 R26R/220050 NOSIG RMK QFE737/0983

时间: 19:37 (14:37 UTC)

预报

该预报发布于3小时和41分钟前的10:56 UTC
预报有效从23日的 12点(UTC)到 24日的 12点(UTC)
风速14节,风向西转西南,有时为29节阵风
能见度10公里或以上
多云层高于2000英尺, 积雨云.
成为
从 23日的 18点(UTC)到 23日的 20点(UTC)
风速10节,风向南转西南,有时为27节阵风

TAF: USSS 231056Z 2312/2412 24007G15MPS 9999 BKN020CB BECMG 2318/2320 21005G14MPS

超过4000个机场的气象观测和天气预报(METAR&TAF报告)。

可查询的气象台以黄色和红色小点在地图上表示。

将鼠标移到小点上方,可查看气象台名称。

然后点击查看天气观测和预报。

如需切换地图:点击带黑十字的绿色按钮放大地图;点击带横线的绿色按钮缩小地图;或者点击绿色箭头查看邻近地区的地图。


METAR-TAF: